Time;durP1;ratioP1;P1;durP2;ratioP2;P2;SDS_P1;SDS_P2;PMS_P1;PMS_P2;Temp;Humidity;BMP_temperature;BMP_pressure;BME280_temperature;BME280_humidity;BME280_pressure;Samples;Min_cycle;Max_cycle;Signal;HPM_P1;HPM_P2
2023/07/17 00:00:11;;;;;;;4.80;4.50;;;;;;;23.15;100.00;99210.66;5088909;28;20664;-76
2023/07/17 00:02:39;;;;;;;5.53;4.55;;;;;;;23.14;100.00;99220.78;5091553;28;20212;-76
2023/07/17 00:05:06;;;;;;;4.57;4.28;;;;;;;23.08;100.00;99215.75;5083528;28;20245;-76
2023/07/17 00:07:33;;;;;;;5.20;4.70;;;;;;;23.08;100.00;99218.50;5070487;28;20208;-75
2023/07/17 00:10:00;;;;;;;4.68;4.28;;;;;;;23.03;100.00;99213.97;5071205;28;20240;-74
2023/07/17 00:12:26;;;;;;;4.97;4.45;;;;;;;23.04;100.00;99222.97;5074163;28;20201;-74
2023/07/17 00:14:53;;;;;;;4.88;4.47;;;;;;;23.02;100.00;99220.53;5074138;28;20201;-76
2023/07/17 00:17:20;;;;;;;5.50;5.00;;;;;;;22.95;100.00;99216.66;5071679;28;20624;-75
2023/07/17 00:19:54;;;;;;;5.88;4.95;;;;;;;22.78;100.00;99226.31;5073602;28;20253;-75
2023/07/17 00:22:22;;;;;;;4.88;4.55;;;;;;;22.75;100.00;99224.22;5073094;28;20687;-75
2023/07/17 00:24:51;;;;;;;5.10;4.60;;;;;;;22.66;100.00;99219.75;5073800;28;20272;-75
2023/07/17 00:27:18;;;;;;;5.20;4.80;;;;;;;22.65;100.00;99223.59;5074132;28;20560;-75
2023/07/17 00:29:45;;;;;;;5.20;4.80;;;;;;;22.64;100.00;99217.31;5059860;28;20246;-75
2023/07/17 00:32:12;;;;;;;5.40;5.00;;;;;;;22.64;100.00;99219.25;5064554;28;20220;-76
2023/07/17 00:34:39;;;;;;;5.07;4.68;;;;;;;22.64;100.00;99220.06;5071648;28;20185;-76
2023/07/17 00:37:07;;;;;;;5.90;4.88;;;;;;;22.64;100.00;99221.97;5073581;28;20214;-75
2023/07/17 00:39:34;;;;;;;5.60;4.72;;;;;;;22.62;100.00;99224.22;5069971;28;20223;-75
2023/07/17 00:42:01;;;;;;;5.15;4.70;;;;;;;22.59;100.00;99220.16;5073334;28;20215;-75
2023/07/17 00:44:28;;;;;;;7.32;5.28;;;;;;;22.59;100.00;99217.44;5070853;28;20227;-75
2023/07/17 00:46:55;;;;;;;5.38;4.85;;;;;;;22.59;100.00;99222.91;5073364;28;20304;-76
2023/07/17 00:49:23;;;;;;;5.13;4.72;;;;;;;22.29;100.00;99234.50;5072348;28;20272;-75
2023/07/17 00:51:52;;;;;;;7.90;5.32;;;;;;;22.19;100.00;99232.81;5059351;28;20201;-75
2023/07/17 00:54:19;;;;;;;5.40;4.93;;;;;;;22.17;100.00;99240.47;5055452;28;20199;-75
2023/07/17 00:56:46;;;;;;;5.45;4.95;;;;;;;22.18;100.00;99253.00;5071410;28;20717;-75
2023/07/17 00:59:14;;;;;;;5.20;4.80;;;;;;;22.18;100.00;99255.75;5072026;28;20255;-76
2023/07/17 01:01:41;;;;;;;5.65;5.15;;;;;;;22.17;100.00;99245.94;5068981;28;20224;-76
2023/07/17 01:04:08;;;;;;;5.85;5.35;;;;;;;22.17;100.00;99242.38;5071924;28;20635;-76
2023/07/17 01:06:38;;;;;;;7.28;5.60;;;;;;;22.13;100.00;99242.19;5081246;28;20239;-76
2023/07/17 01:09:06;;;;;;;5.95;5.45;;;;;;;22.10;100.00;99251.00;5093351;28;20204;-75
2023/07/17 01:11:33;;;;;;;6.20;5.70;;;;;;;22.07;100.00;99248.88;5091364;28;20246;-75
2023/07/17 01:14:00;;;;;;;6.60;6.00;;;;;;;22.09;100.00;99249.38;5089233;28;20728;-75
2023/07/17 01:16:26;;;;;;;6.25;5.65;;;;;;;22.14;100.00;99251.19;5092777;28;20617;-75
2023/07/17 01:18:53;;;;;;;7.32;5.68;;;;;;;22.17;100.00;99256.84;5091608;28;20203;-76
2023/07/17 01:21:25;;;;;;;6.90;6.07;;;;;;;22.19;100.00;99251.91;5093007;28;20226;-75
2023/07/17 01:23:52;;;;;;;5.28;4.88;;;;;;;22.21;100.00;99260.56;5090517;28;20245;-75
2023/07/17 01:26:19;;;;;;;5.72;5.30;;;;;;;22.22;100.00;99262.19;5088689;28;20213;-76
2023/07/17 01:28:47;;;;;;;5.95;5.32;;;;;;;22.21;100.00;99265.25;5091104;28;20192;-75
2023/07/17 01:31:13;;;;;;;6.30;5.70;;;;;;;22.17;100.00;99273.22;5092717;28;20596;-77
2023/07/17 01:33:41;;;;;;;6.07;5.05;;;;;;;22.18;100.00;99269.38;5092499;28;20231;-75
2023/07/17 01:36:07;;;;;;;6.65;6.05;;;;;;;22.19;100.00;99270.19;5092468;28;20196;-74
2023/07/17 01:38:37;;;;;;;6.03;5.45;;;;;;;22.19;100.00;99268.28;5092038;28;20555;-74
2023/07/17 01:41:03;;;;;;;6.55;5.95;;;;;;;22.19;100.00;99267.47;5096820;28;20192;-76
2023/07/17 01:43:30;;;;;;;7.97;5.95;;;;;;;22.15;100.00;99267.28;5090818;28;20261;-77
2023/07/17 01:45:56;;;;;;;5.85;5.38;;;;;;;22.19;100.00;99271.00;5092643;28;20258;-74
2023/07/17 01:48:23;;;;;;;5.32;4.93;;;;;;;22.25;100.00;99275.25;5092609;28;20202;-78
2023/07/17 01:50:50;;;;;;;4.65;4.35;;;;;;;22.32;100.00;99269.38;5092226;28;20212;-76
2023/07/17 01:53:21;;;;;;;4.85;4.35;;;;;;;22.52;100.00;99279.03;5092469;28;20194;-74
2023/07/17 01:55:48;;;;;;;4.50;4.10;;;;;;;22.72;100.00;99278.63;5092223;28;20279;-75
2023/07/17 01:58:15;;;;;;;4.18;3.88;;;;;;;22.76;100.00;99283.19;5091283;28;20192;-75
2023/07/17 02:00:42;;;;;;;4.75;4.28;;;;;;;22.86;100.00;99273.94;5090392;28;20286;-75
2023/07/17 02:03:08;;;;;;;4.00;3.60;;;;;;;22.93;100.00;99276.22;5092646;28;20674;-75
2023/07/17 02:05:35;;;;;;;5.20;3.88;;;;;;;23.05;100.00;99280.03;5100072;28;20275;-75
2023/07/17 02:08:02;;;;;;;4.90;4.15;;;;;;;23.11;100.00;99283.44;5112535;28;20673;-75
2023/07/17 02:10:29;;;;;;;4.10;3.83;;;;;;;23.14;100.00;99280.88;5112991;28;20191;-75
2023/07/17 02:12:56;;;;;;;4.28;3.97;;;;;;;23.22;100.00;99290.28;5083347;28;20198;-76
2023/07/17 02:15:23;;;;;;;3.92;3.53;;;;;;;23.27;100.00;99284.69;5094422;28;20232;-77
2023/07/17 02:17:49;;;;;;;5.10;3.67;;;;;;;23.24;100.00;99285.31;5112631;28;20187;-77
2023/07/17 02:20:16;;;;;;;4.40;3.70;;;;;;;23.25;100.00;99289.66;5111029;28;20223;-76
2023/07/17 02:22:43;;;;;;;3.95;3.65;;;;;;;23.25;100.00;99284.19;5112226;28;20665;-77
2023/07/17 02:25:10;;;;;;;4.30;3.90;;;;;;;23.28;100.00;99292.56;5093887;28;20260;-77
2023/07/17 02:27:37;;;;;;;4.47;3.97;;;;;;;23.28;100.00;99287.09;5111638;28;20199;-77
2023/07/17 02:30:05;;;;;;;4.00;3.70;;;;;;;23.29;100.00;99287.91;5089882;28;20198;-76
2023/07/17 02:32:33;;;;;;;4.07;3.65;;;;;;;23.26;100.00;99285.81;5098518;28;20620;-77
2023/07/17 02:34:59;;;;;;;4.28;3.97;;;;;;;23.22;100.00;99296.56;5096743;28;20259;-79
2023/07/17 02:37:26;;;;;;;4.35;3.90;;;;;;;23.11;100.00;99295.19;5063032;28;20203;-77
2023/07/17 02:39:53;;;;;;;4.40;4.00;;;;;;;23.05;100.00;99290.16;5112363;28;20194;-77
2023/07/17 02:42:20;;;;;;;4.20;3.90;;;;;;;23.01;100.00;99291.88;5094266;28;20359;-77
2023/07/17 02:44:47;;;;;;;4.45;4.05;;;;;;;22.95;100.00;99287.66;5112225;28;20573;-77
2023/07/17 02:47:15;;;;;;;4.45;4.15;;;;;;;22.91;100.00;99290.19;5093599;28;20279;-78
2023/07/17 02:49:42;;;;;;;4.05;3.75;;;;;;;22.88;100.00;99304.47;5112706;28;20194;-76
2023/07/17 02:52:08;;;;;;;4.28;3.88;;;;;;;22.83;100.00;99301.84;5084047;28;20643;-76
2023/07/17 02:54:37;;;;;;;5.22;4.13;;;;;;;22.77;100.00;99301.16;5111956;28;20187;-77
2023/07/17 02:57:04;;;;;;;4.13;3.83;;;;;;;22.73;100.00;99310.28;5109077;28;20277;-77
2023/07/17 02:59:31;;;;;;;4.43;4.00;;;;;;;22.64;100.00;99307.44;5112073;28;20217;-78
2023/07/17 03:01:58;;;;;;;4.53;4.18;;;;;;;22.61;100.00;99299.88;5103659;28;20216;-77
2023/07/17 03:04:26;;;;;;;4.60;4.20;;;;;;;22.60;100.00;99303.69;5111979;28;20182;-76
2023/07/17 03:06:53;;;;;;;4.47;4.07;;;;;;;22.58;100.00;99300.50;5110140;28;20229;-77
2023/07/17 03:09:19;;;;;;;5.00;4.50;;;;;;;22.51;100.00;99300.06;5106164;28;20203;-77
2023/07/17 03:11:46;;;;;;;4.45;4.05;;;;;;;22.50;100.00;99306.66;5104292;28;20184;-78
2023/07/17 03:14:13;;;;;;;5.20;4.53;;;;;;;22.43;100.00;99310.91;5112028;28;20652;-77
2023/07/17 03:16:40;;;;;;;4.40;4.05;;;;;;;22.41;100.00;99311.19;5093508;28;20203;-76
2023/07/17 03:19:09;;;;;;;4.50;4.20;;;;;;;22.42;100.00;99317.47;5090020;28;20287;-76
2023/07/17 03:21:36;;;;;;;4.88;4.38;;;;;;;22.42;100.00;99315.56;5093175;28;20226;-77
2023/07/17 03:24:04;;;;;;;5.18;4.32;;;;;;;22.39;100.00;99317.00;5111572;28;20192;-76
2023/07/17 03:26:31;;;;;;;4.82;4.43;;;;;;;22.33;100.00;99320.94;5106001;28;20220;-76
2023/07/17 03:28:58;;;;;;;4.65;4.30;;;;;;;22.28;100.00;99315.56;5072917;28;20235;-80
2023/07/17 03:31:24;;;;;;;4.60;4.20;;;;;;;22.24;100.00;99328.22;5096105;28;20222;-76
2023/07/17 03:33:51;;;;;;;5.18;4.70;;;;;;;22.17;100.00;99325.06;5084900;28;20202;-76
2023/07/17 03:36:18;;;;;;;5.25;4.80;;;;;;;22.06;100.00;99326.38;5066193;28;20295;-77
2023/07/17 03:38:45;;;;;;;5.28;4.78;;;;;;;22.05;100.00;99324.75;5085156;28;20189;-77
2023/07/17 03:41:12;;;;;;;5.28;4.78;;;;;;;22.08;100.00;99328.78;5079995;28;20237;-77
2023/07/17 03:43:38;;;;;;;4.95;4.65;;;;;;;22.12;100.00;99324.34;5080650;28;20296;-76
2023/07/17 03:46:06;;;;;;;5.10;4.72;;;;;;;22.17;100.00;99330.50;5095764;28;20251;-77
2023/07/17 03:48:33;;;;;;;5.45;4.70;;;;;;;22.20;100.00;99329.13;5097199;28;20203;-77
2023/07/17 03:51:04;;;;;;;5.38;4.97;;;;;;;22.20;100.00;99318.19;5092426;28;20670;-76
2023/07/17 03:53:31;;;;;;;5.13;4.72;;;;;;;22.29;100.00;99324.56;5115184;28;20192;-77
2023/07/17 03:55:58;;;;;;;5.30;4.90;;;;;;;22.32;100.00;99330.22;5096808;28;20204;-76
2023/07/17 03:58:24;;;;;;;5.25;4.78;;;;;;;22.43;100.00;99330.81;5115809;28;20637;-78
2023/07/17 04:00:51;;;;;;;5.03;4.55;;;;;;;22.49;100.00;99340.50;5095231;28;20184;-77
2023/07/17 04:03:18;;;;;;;5.40;5.00;;;;;;;22.57;100.00;99339.81;5097018;28;20247;-77
2023/07/17 04:05:48;;;;;;;5.18;4.80;;;;;;;22.71;100.00;99350.75;5076743;28;20237;-77
2023/07/17 04:08:15;;;;;;;4.63;4.30;;;;;;;23.51;100.00;99350.84;5062410;28;20225;-77
2023/07/17 04:10:42;;;;;;;5.32;4.93;;;;;;;24.53;100.00;99343.47;5074357;28;20542;-76
2023/07/17 04:13:08;;;;;;;5.63;5.13;;;;;;;25.74;100.00;99360.81;5074185;28;20741;-77
2023/07/17 04:15:36;;;;;;;4.40;4.10;;;;;;;26.51;100.00;99351.50;5056105;28;20731;-77
2023/07/17 04:18:05;;;;;;;4.57;4.18;;;;;;;27.24;100.00;99352.03;5056011;28;20224;-77
2023/07/17 04:20:32;;;;;;;7.53;4.15;;;;;;;27.97;100.00;99362.19;5066763;28;20228;-78
2023/07/17 04:22:59;;;;;;;4.38;4.07;;;;;;;28.33;100.00;99358.69;5073760;28;20193;-77
2023/07/17 04:25:26;;;;;;;7.18;4.38;;;;;;;28.77;100.00;99359.75;5071399;28;20271;-77
2023/07/17 04:27:52;;;;;;;5.03;4.30;;;;;;;28.77;100.00;99364.47;5067649;28;20769;-77
2023/07/17 04:30:22;;;;;;;4.72;4.20;;;;;;;29.00;100.00;99364.75;5066485;28;20204;-76
2023/07/17 04:32:51;;;;;;;3.90;3.60;;;;;;;29.26;100.00;99370.66;5059333;28;20197;-77
2023/07/17 04:35:18;;;;;;;4.50;3.80;;;;;;;28.80;100.00;99361.81;5073154;28;20600;-75
2023/07/17 04:37:46;;;;;;;4.03;3.63;;;;;;;27.96;100.00;99359.75;5050530;28;20202;-77
2023/07/17 04:40:13;;;;;;;4.65;3.67;;;;;;;27.23;100.00;99362.22;5039472;28;20205;-76
2023/07/17 04:42:41;;;;;;;4.60;3.47;;;;;;;27.02;100.00;99373.19;5049265;28;20205;-77
2023/07/17 04:45:08;;;;;;;4.50;3.95;;;;;;;26.84;100.00;99371.69;5052901;28;20212;-76
2023/07/17 04:47:35;;;;;;;10.52;4.20;;;;;;;26.69;100.00;99372.25;5046908;28;20224;-77
2023/07/17 04:50:04;;;;;;;4.05;3.55;;;;;;;26.63;100.00;99374.41;5066935;28;20191;-76
2023/07/17 04:52:33;;;;;;;4.93;3.75;;;;;;;26.63;100.00;99371.66;5057931;28;20223;-76
2023/07/17 04:54:59;;;;;;;6.28;3.85;;;;;;;26.73;100.00;99371.28;5065430;28;20680;-76
2023/07/17 04:57:26;;;;;;;5.28;3.88;;;;;;;26.74;100.00;99370.13;5073077;28;20652;-77
2023/07/17 04:59:54;;;;;;;4.00;3.40;;;;;;;26.81;100.00;99366.84;5053790;28;20263;-77
2023/07/17 05:02:21;;;;;;;5.90;3.63;;;;;;;26.86;100.00;99374.94;5071671;28;20280;-77
2023/07/17 05:04:47;;;;;;;4.32;3.92;;;;;;;26.93;100.00;99363.41;5073795;28;20188;-77
2023/07/17 05:07:15;;;;;;;5.78;3.45;;;;;;;27.01;100.00;99373.56;5091413;28;20216;-77
2023/07/17 05:09:41;;;;;;;4.55;3.45;;;;;;;27.11;100.00;99373.94;5089720;28;20198;-77
2023/07/17 05:12:08;;;;;;;8.43;3.80;;;;;;;27.19;100.00;99374.22;5093756;28;20200;-77
2023/07/17 05:14:36;;;;;;;4.65;3.85;;;;;;;27.24;100.00;99377.59;5095496;28;20689;-78
2023/07/17 05:17:05;;;;;;;7.18;3.88;;;;;;;27.31;100.00;99382.53;5094955;28;20551;-76
2023/07/17 05:19:32;;;;;;;4.28;3.90;;;;;;;27.32;100.00;99386.91;5082113;28;20630;-77
2023/07/17 05:21:59;;;;;;;5.07;3.72;;;;;;;27.33;100.00;99383.81;5051561;28;20432;-76
2023/07/17 05:24:26;;;;;;;4.20;3.58;;;;;;;27.43;100.00;99388.09;5079324;28;20288;-76
2023/07/17 05:26:53;;;;;;;5.10;3.58;;;;;;;27.49;100.00;99382.06;5065460;28;20270;-78
2023/07/17 05:29:19;;;;;;;5.57;3.70;;;;;;;27.51;100.00;99385.31;5072238;28;20197;-77
2023/07/17 05:31:46;;;;;;;3.42;3.13;;;;;;;27.52;100.00;99380.63;5077520;28;20196;-76
2023/07/17 05:34:12;;;;;;;4.07;3.35;;;;;;;27.59;100.00;99383.59;5080040;28;20192;-76
2023/07/17 05:36:39;;;;;;;3.28;2.90;;;;;;;27.62;100.00;99377.44;5072661;28;20199;-77
2023/07/17 05:39:06;;;;;;;3.63;3.33;;;;;;;27.58;100.00;99393.00;5101301;28;20271;-76
2023/07/17 05:41:33;;;;;;;3.25;2.95;;;;;;;27.72;100.00;99387.19;5094631;28;20219;-76
2023/07/17 05:44:00;;;;;;;4.38;3.22;;;;;;;27.52;100.00;99391.63;5094827;28;20199;-77
2023/07/17 05:46:27;;;;;;;3.55;3.25;;;;;;;27.59;100.00;99373.41;5088476;28;20208;-77
2023/07/17 05:48:54;;;;;;;3.00;2.72;;;;;;;27.50;100.00;99375.44;5084028;28;20185;-77
2023/07/17 05:51:20;;;;;;;3.75;3.45;;;;;;;27.59;100.00;99375.34;5107635;28;20702;-77
2023/07/17 05:53:47;;;;;;;3.53;3.25;;;;;;;27.47;100.00;99378.03;5086355;28;20199;-78
2023/07/17 05:56:16;;;;;;;3.70;3.40;;;;;;;27.76;100.00;99377.97;5094374;28;20200;-77
2023/07/17 05:58:43;;;;;;;4.68;3.35;;;;;;;28.01;100.00;99373.31;5086365;28;20199;-77
2023/07/17 06:01:10;;;;;;;3.80;3.33;;;;;;;28.14;100.00;99377.72;5086148;28;20203;-76
2023/07/17 06:03:36;;;;;;;3.67;3.38;;;;;;;27.92;100.00;99372.59;5112480;28;20216;-77
2023/07/17 06:06:03;;;;;;;3.47;3.17;;;;;;;28.11;100.00;99363.84;5086827;28;20263;-76
2023/07/17 06:08:33;;;;;;;3.67;3.38;;;;;;;28.14;100.00;99374.16;5072494;28;20711;-77
2023/07/17 06:10:59;;;;;;;3.30;3.05;;;;;;;28.09;100.00;99374.38;5072052;28;20651;-78
2023/07/17 06:13:26;;;;;;;3.22;3.00;;;;;;;28.06;100.00;99372.28;5072052;28;20201;-76
2023/07/17 06:15:52;;;;;;;4.53;3.38;;;;;;;27.76;100.00;99372.44;5071510;28;20204;-77
2023/07/17 06:18:19;;;;;;;3.40;3.20;;;;;;;27.94;100.00;99373.88;5071631;28;20197;-77
2023/07/17 06:20:46;;;;;;;3.53;3.22;;;;;;;27.98;100.00;99380.31;5071653;28;20308;-76
2023/07/17 06:23:12;;;;;;;4.30;3.25;;;;;;;28.02;100.00;99374.91;5069430;28;20194;-76
2023/07/17 06:25:39;;;;;;;3.60;3.30;;;;;;;28.13;100.00;99378.88;5070972;28;20295;-76
2023/07/17 06:28:07;;;;;;;3.42;3.13;;;;;;;27.77;100.00;99373.22;5070068;28;20245;-76
2023/07/17 06:30:33;;;;;;;3.55;3.30;;;;;;;28.15;100.00;99384.84;5072587;28;20594;-77
2023/07/17 06:33:00;;;;;;;3.70;3.38;;;;;;;28.32;100.00;99384.63;5054133;28;20621;-76
2023/07/17 06:35:27;;;;;;;3.30;3.00;;;;;;;28.30;100.00;99386.94;5072078;28;20189;-77
2023/07/17 06:37:54;;;;;;;3.33;3.05;;;;;;;28.32;100.00;99384.63;5072005;28;20197;-76
2023/07/17 06:40:20;;;;;;;2.95;2.75;;;;;;;28.41;100.00;99390.06;5054486;28;20185;-77
2023/07/17 06:42:47;;;;;;;3.15;2.85;;;;;;;28.48;100.00;99386.72;5071798;28;20567;-76
2023/07/17 06:45:14;;;;;;;3.25;3.03;;;;;;;28.48;100.00;99390.28;5071827;28;20283;-77
2023/07/17 06:47:40;;;;;;;3.70;3.40;;;;;;;28.56;100.00;99400.38;5071655;28;20255;-77
2023/07/17 06:50:07;;;;;;;3.45;2.90;;;;;;;28.74;100.00;99385.22;5072010;28;20202;-78
2023/07/17 06:52:34;;;;;;;3.20;3.00;;;;;;;28.92;100.00;99393.28;5071976;28;20193;-77
2023/07/17 06:55:01;;;;;;;3.40;3.10;;;;;;;28.97;100.00;99385.56;5071933;28;20224;-77
2023/07/17 06:57:31;;;;;;;3.95;3.05;;;;;;;29.06;100.00;99397.28;5071922;28;20557;-78
2023/07/17 06:59:58;;;;;;;3.65;3.10;;;;;;;29.10;100.00;99394.63;5071884;28;20687;-77
2023/07/17 07:02:25;;;;;;;3.30;3.08;;;;;;;29.19;100.00;99404.38;5063824;28;20613;-78
2023/07/17 07:04:52;;;;;;;3.28;2.97;;;;;;;29.31;100.00;99398.84;5053949;28;20225;-78
2023/07/17 07:07:18;;;;;;;3.53;3.20;;;;;;;29.40;100.00;99395.94;5068822;28;21205;-76
2023/07/17 07:09:45;;;;;;;4.53;3.00;;;;;;;29.46;100.00;99390.97;5071955;28;20266;-76
2023/07/17 07:12:13;;;;;;;5.05;3.17;;;;;;;29.82;100.00;99392.78;5070757;28;20235;-77
2023/07/17 07:14:40;;;;;;;3.00;2.80;;;;;;;30.20;100.00;99404.09;5074867;28;20190;-78
2023/07/17 07:17:07;;;;;;;5.60;3.40;;;;;;;30.49;100.00;99400.94;5059916;28;20194;-76
2023/07/17 07:19:34;;;;;;;3.28;2.97;;;;;;;30.40;100.00;99399.47;5064870;28;20196;-78
2023/07/17 07:22:01;;;;;;;3.40;3.10;;;;;;;30.25;100.00;99403.03;5074909;28;20254;-77
2023/07/17 07:24:28;;;;;;;6.65;2.97;;;;;;;30.70;100.00;99405.41;5075373;28;20204;-77
2023/07/17 07:26:54;;;;;;;3.50;3.20;;;;;;;31.07;97.92;99412.22;5074687;28;20217;-78
2023/07/17 07:29:21;;;;;;;5.55;3.25;;;;;;;30.98;98.37;99408.81;5065148;28;20731;-78
2023/07/17 07:31:48;;;;;;;3.47;3.00;;;;;;;31.29;96.39;99394.13;5062878;28;20590;-77
2023/07/17 07:34:15;;;;;;;3.33;3.13;;;;;;;31.64;95.01;99403.19;5072884;28;20250;-77
2023/07/17 07:36:41;;;;;;;3.75;3.25;;;;;;;31.70;93.76;99403.69;5068729;28;20735;-76
2023/07/17 07:39:08;;;;;;;3.70;3.10;;;;;;;31.53;93.11;99404.09;5072642;28;20212;-77
2023/07/17 07:41:36;;;;;;;3.45;3.15;;;;;;;31.59;94.20;99394.38;5074329;28;20197;-77
2023/07/17 07:44:03;;;;;;;3.50;3.28;;;;;;;31.32;93.38;99396.94;5073448;28;20197;-76
2023/07/17 07:46:29;;;;;;;3.42;3.22;;;;;;;31.24;96.16;99392.44;5074442;28;20725;-76
2023/07/17 07:48:56;;;;;;;3.95;3.40;;;;;;;30.98;95.40;99403.28;5074495;28;20607;-75
2023/07/17 07:51:23;;;;;;;3.58;3.17;;;;;;;30.81;95.62;99409.19;5071959;28;20197;-76
2023/07/17 07:53:50;;;;;;;3.28;3.08;;;;;;;30.87;97.39;99400.28;5074535;28;20197;-77
2023/07/17 07:56:16;;;;;;;3.67;3.40;;;;;;;31.46;97.51;99399.22;5074615;28;20185;-78
2023/07/17 07:58:44;;;;;;;4.38;3.40;;;;;;;31.24;95.62;99394.41;5074315;28;20197;-77
2023/07/17 08:01:10;;;;;;;5.28;3.50;;;;;;;32.02;96.23;99407.88;5074447;28;20240;-77
2023/07/17 08:03:39;;;;;;;4.10;3.53;;;;;;;32.32;93.10;99411.63;5073992;28;20242;-75
2023/07/17 08:06:06;;;;;;;3.65;3.35;;;;;;;32.43;88.18;99414.56;5091947;28;20292;-78
2023/07/17 08:08:33;;;;;;;3.20;2.95;;;;;;;32.43;86.65;99411.78;5102317;28;20220;-76
2023/07/17 08:11:01;;;;;;;4.13;3.35;;;;;;;32.39;84.91;99407.34;5106422;28;20188;-78
2023/07/17 08:13:28;;;;;;;5.65;3.28;;;;;;;32.81;84.91;99408.09;5096728;28;20223;-78
2023/07/17 08:15:56;;;;;;;4.25;3.50;;;;;;;32.73;84.54;99395.28;5106777;28;20214;-79
2023/07/17 08:18:23;;;;;;;3.90;3.60;;;;;;;32.94;84.71;99406.72;5114815;28;20192;-77
2023/07/17 08:20:50;;;;;;;4.95;3.40;;;;;;;33.38;82.25;99395.84;5103680;28;20232;-77
2023/07/17 08:23:25;;;;;;;3.60;3.30;;;;;;;33.59;81.66;99401.69;5111221;28;20200;-77
2023/07/17 08:25:52;;;;;;;4.55;3.05;;;;;;;33.19;80.24;99410.66;5112160;28;20222;-77
2023/07/17 08:28:19;;;;;;;3.70;3.40;;;;;;;33.21;79.42;99413.09;5093866;28;20219;-77
2023/07/17 08:30:46;;;;;;;4.22;3.50;;;;;;;33.37;78.70;99421.19;5089052;28;20208;-76
2023/07/17 08:33:15;;;;;;;3.33;3.13;;;;;;;32.72;79.03;99418.66;5109783;28;20275;-77
2023/07/17 08:35:42;;;;;;;4.40;3.33;;;;;;;32.60;80.85;99432.69;5112985;28;20187;-79
2023/07/17 08:38:08;;;;;;;3.78;3.40;;;;;;;32.72;80.43;99435.28;5112819;28;20192;-77
2023/07/17 08:40:38;;;;;;;4.43;4.03;;;;;;;32.34;79.50;99444.50;5114027;28;20669;-78
2023/07/17 08:43:06;;;;;;;4.45;3.67;;;;;;;32.47;79.14;99436.84;5113892;28;20257;-78
2023/07/17 08:45:34;;;;;;;6.10;4.20;;;;;;;32.48;80.67;99436.44;5103971;28;20695;-78
2023/07/17 08:48:00;;;;;;;4.03;3.72;;;;;;;32.14;80.84;99440.19;5101629;28;20247;-77
2023/07/17 08:50:28;;;;;;;4.32;3.92;;;;;;;32.48;79.85;99436.44;5097724;28;20272;-77
2023/07/17 08:52:55;;;;;;;3.90;3.70;;;;;;;32.68;80.73;99431.66;5086020;28;20195;-78
2023/07/17 08:55:22;;;;;;;3.95;3.65;;;;;;;32.72;79.02;99438.88;5101314;28;20244;-77
2023/07/17 08:57:51;;;;;;;4.20;3.90;;;;;;;32.78;79.11;99444.91;5102074;28;20220;-76
2023/07/17 09:00:19;;;;;;;4.43;4.05;;;;;;;33.26;77.40;99443.28;5094499;28;20263;-77
2023/07/17 09:02:45;;;;;;;4.32;3.92;;;;;;;33.40;75.82;99453.78;5072912;28;20189;-77
2023/07/17 09:05:12;;;;;;;4.13;3.83;;;;;;;33.82;75.85;99451.59;5090547;28;20341;-77
2023/07/17 09:07:39;;;;;;;4.07;3.78;;;;;;;33.88;75.26;99444.50;5070851;28;20214;-78
2023/07/17 09:10:22;;;;;;;4.53;4.10;;;;;;;33.59;75.74;99450.88;5061828;28;20240;-77
2023/07/17 09:12:56;;;;;;;3.95;3.63;;;;;;;34.33;75.23;99456.53;5069130;28;20194;-76
2023/07/17 09:15:27;;;;;;;4.38;4.07;;;;;;;33.47;75.08;99456.66;5063912;28;20580;-79
2023/07/17 09:17:54;;;;;;;4.18;3.78;;;;;;;34.11;72.85;99452.69;5061098;28;20664;-77
2023/07/17 09:20:21;;;;;;;4.68;4.10;;;;;;;33.31;73.48;99447.72;5064895;28;20570;-76
2023/07/17 09:22:48;;;;;;;4.13;3.83;;;;;;;33.39;74.71;99447.44;5067425;28;20652;-77
2023/07/17 09:25:16;;;;;;;4.22;3.92;;;;;;;33.60;72.92;99444.91;5070102;28;20659;-77
2023/07/17 09:27:50;;;;;;;4.20;3.90;;;;;;;33.64;73.68;99445.00;5076644;28;20317;-78
2023/07/17 09:30:19;;;;;;;4.65;4.25;;;;;;;33.33;73.60;99448.94;5074775;28;20665;-78
2023/07/17 09:32:47;;;;;;;4.55;3.97;;;;;;;33.77;73.31;99445.56;5070595;28;20192;-80
2023/07/17 09:35:14;;;;;;;4.80;4.40;;;;;;;33.59;73.30;99454.47;5072089;28;20189;-78
2023/07/17 09:37:43;;;;;;;4.53;4.13;;;;;;;33.18;72.01;99449.91;5065972;28;20188;-78
2023/07/17 09:40:13;;;;;;;4.55;4.25;;;;;;;33.30;71.95;99449.69;5056944;28;20193;-78
2023/07/17 09:42:45;;;;;;;4.85;4.47;;;;;;;33.04;71.99;99446.88;5063684;28;20687;-79
2023/07/17 09:45:12;;;;;;;4.20;3.80;;;;;;;33.45;73.93;99440.38;5063206;28;20232;-78
2023/07/17 09:47:42;;;;;;;5.68;4.50;;;;;;;33.32;74.09;99461.19;5063954;28;20209;-78
2023/07/17 09:50:09;;;;;;;4.20;3.90;;;;;;;32.83;75.40;99452.91;5066782;28;20193;-78
2023/07/17 09:52:36;;;;;;;4.28;3.97;;;;;;;32.53;75.39;99449.19;5063577;28;20196;-79
2023/07/17 09:55:03;;;;;;;4.65;4.25;;;;;;;32.83;77.22;99452.91;5068126;28;20193;-79
2023/07/17 09:57:36;;;;;;;5.80;4.38;;;;;;;32.84;76.87;99453.72;5050927;28;20747;-78
2023/07/17 10:00:11;;;;;;;4.55;4.20;;;;;;;32.77;77.93;99459.94;5068950;28;20573;-78
2023/07/17 10:03:05;;;;;;;4.45;4.05;;;;;;;32.67;78.34;99468.88;5054379;28;20207;-79
2023/07/17 10:05:33;;;;;;;4.50;4.20;;;;;;;33.09;75.13;99477.88;5061678;28;20636;-79
2023/07/17 10:08:06;;;;;;;4.20;3.80;;;;;;;32.79;74.67;99474.25;5070702;28;20292;-78
2023/07/17 10:10:34;;;;;;;3.97;3.53;;;;;;;33.00;76.90;99485.69;5072154;28;20197;-78
2023/07/17 10:13:01;;;;;;;4.28;3.88;;;;;;;33.07;75.66;99488.59;5070656;28;20243;-79
2023/07/17 10:15:29;;;;;;;4.45;4.07;;;;;;;32.39;76.04;99490.53;5072286;28;21125;-78
2023/07/17 10:17:57;;;;;;;4.43;4.10;;;;;;;32.00;77.09;99500.84;5070499;28;20197;-79
2023/07/17 10:20:25;;;;;;;4.50;4.10;;;;;;;31.72;77.77;99492.75;5067316;28;20221;-76
2023/07/17 10:22:52;;;;;;;4.35;3.95;;;;;;;31.59;79.65;99492.06;5071810;28;20224;-77
2023/07/17 10:25:18;;;;;;;4.85;4.05;;;;;;;31.27;82.28;99485.78;5071742;28;20220;-76
2023/07/17 10:27:47;;;;;;;4.40;4.00;;;;;;;31.43;82.39;99491.31;5071662;28;20581;-77
2023/07/17 10:30:27;;;;;;;5.32;3.80;;;;;;;31.76;82.33;99477.00;5071442;28;20197;-79
2023/07/17 10:33:07;;;;;;;5.45;4.07;;;;;;;31.72;81.04;99476.94;5065957;28;20653;-77
2023/07/17 10:35:44;;;;;;;5.20;4.30;;;;;;;31.66;82.06;99469.28;5071916;28;20201;-78
2023/07/17 10:38:13;;;;;;;4.75;4.20;;;;;;;31.73;81.90;99486.84;5071583;28;20272;-79
2023/07/17 10:40:39;;;;;;;4.20;3.90;;;;;;;31.66;81.40;99481.16;5071690;28;20235;-78
2023/07/17 10:43:10;;;;;;;4.93;4.38;;;;;;;31.75;83.75;99472.63;5046886;28;20655;-79
2023/07/17 10:45:37;;;;;;;5.15;4.70;;;;;;;32.05;81.94;99473.66;5071639;28;20204;-78
2023/07/17 10:48:06;;;;;;;7.22;4.65;;;;;;;31.76;83.14;99454.84;5072155;28;20209;-78
2023/07/17 10:50:33;;;;;;;6.25;5.38;;;;;;;31.29;86.31;99461.34;5075784;28;20216;-78
2023/07/17 10:53:09;;;;;;;5.82;5.25;;;;;;;31.44;86.12;99456.94;5075447;28;20227;-77
2023/07/17 10:55:36;;;;;;;6.05;5.55;;;;;;;31.68;84.48;99450.34;5076310;28;20197;-79
2023/07/17 10:58:03;;;;;;;6.18;5.68;;;;;;;31.01;85.75;99452.38;5074994;28;20197;-79
2023/07/17 11:00:32;;;;;;;6.32;5.78;;;;;;;31.34;83.02;99446.41;5073586;28;20561;-78
2023/07/17 11:03:01;;;;;;;5.70;5.30;;;;;;;31.54;82.32;99448.06;5075416;28;20212;-75
2023/07/17 11:05:28;;;;;;;5.72;5.32;;;;;;;31.68;82.25;99458.66;5049327;28;20235;-77
2023/07/17 11:07:57;;;;;;;6.82;5.32;;;;;;;31.46;83.23;99463.69;5074919;28;20291;-76
2023/07/17 11:10:24;;;;;;;5.65;5.25;;;;;;;31.79;81.56;99454.94;5074945;28;20400;-77
2023/07/17 11:12:51;;;;;;;5.35;4.85;;;;;;;32.11;80.54;99449.22;5057573;28;20224;-78
2023/07/17 11:15:19;;;;;;;5.28;4.88;;;;;;;32.02;79.80;99454.97;5075311;28;20551;-77
2023/07/17 11:17:46;;;;;;;5.15;4.60;;;;;;;32.37;80.09;99443.00;5074919;28;20189;-77
2023/07/17 11:20:12;;;;;;;4.88;4.47;;;;;;;32.72;77.74;99458.28;5074830;28;20217;-79
2023/07/17 11:22:41;;;;;;;4.72;4.32;;;;;;;32.56;75.88;99451.25;5075048;28;20197;-78
2023/07/17 11:25:10;;;;;;;4.63;4.22;;;;;;;33.14;75.12;99444.28;5075397;28;20272;-78
2023/07/17 11:27:40;;;;;;;4.50;4.20;;;;;;;32.76;75.22;99439.72;5074813;28;20691;-78
2023/07/17 11:30:18;;;;;;;4.78;4.35;;;;;;;32.54;75.95;99439.72;5074084;28;20663;-79